createdAt,value
2018-12-13T00:00:54.869Z,1015.18
2018-12-13T00:01:54.865Z,1015.22
2018-12-13T00:02:54.809Z,1015.22
2018-12-13T00:03:54.804Z,1015.20
2018-12-13T00:04:54.830Z,1015.20
2018-12-13T00:05:54.773Z,1015.18
2018-12-13T00:06:54.765Z,1015.22
2018-12-13T00:07:54.759Z,1015.18
2018-12-13T00:08:54.740Z,1015.15
2018-12-13T00:09:54.732Z,1015.13
2018-12-13T00:10:54.779Z,1015.15
2018-12-13T00:11:54.729Z,1015.16
2018-12-13T00:12:54.698Z,1015.20
2018-12-13T00:13:54.689Z,1015.17
2018-12-13T00:14:54.678Z,1015.13
2018-12-13T00:15:54.670Z,1015.15
2018-12-13T00:16:54.697Z,1015.16
2018-12-13T00:17:54.644Z,1015.20
2018-12-13T00:18:54.637Z,1015.10
2018-12-13T00:19:54.625Z,1015.17
2018-12-13T00:20:54.616Z,1015.18
2018-12-13T00:21:54.603Z,1015.14
2018-12-13T00:22:54.878Z,1015.11
2018-12-13T00:23:54.583Z,1015.08
2018-12-13T00:24:54.571Z,1015.08
2018-12-13T00:25:54.596Z,1015.08
2018-12-13T00:26:54.546Z,1015.06
2018-12-13T00:27:54.536Z,1015.02
2018-12-13T00:28:54.576Z,1015.05
2018-12-13T00:29:54.519Z,1015.09
2018-12-13T00:30:54.509Z,1015.08
2018-12-13T00:31:54.496Z,1015.03
2018-12-13T00:32:54.485Z,1015.06
2018-12-13T00:33:54.516Z,1015.04
2018-12-13T00:34:54.462Z,1014.99
2018-12-13T00:35:54.456Z,1014.98
2018-12-13T00:36:54.451Z,1015.00
2018-12-13T00:37:54.434Z,1014.99
2018-12-13T00:38:54.425Z,1015.01
2018-12-13T00:39:54.469Z,1015.02
2018-12-13T00:40:54.400Z,1015.00
2018-12-13T00:41:54.431Z,1014.95
2018-12-13T00:42:54.375Z,1015.01
2018-12-13T00:43:54.367Z,1015.00
2018-12-13T00:44:54.356Z,1014.98
2018-12-13T00:45:54.450Z,1014.95
2018-12-13T00:46:54.334Z,1014.91
2018-12-13T00:47:54.392Z,1014.91
2018-12-13T00:48:54.313Z,1014.88
2018-12-13T00:49:54.301Z,1014.87
2018-12-13T00:50:54.290Z,1014.93
2018-12-13T00:51:54.280Z,1014.89
2018-12-13T00:52:54.276Z,1014.90
2018-12-13T00:53:54.304Z,1014.90
2018-12-13T00:54:54.247Z,1014.84
2018-12-13T00:55:54.237Z,1014.86
2018-12-13T00:56:54.230Z,1014.83
2018-12-13T00:57:54.220Z,1014.79
2018-12-13T00:58:54.202Z,1014.83
2018-12-13T00:59:54.239Z,1014.81
2018-12-13T01:00:54.184Z,1014.82
2018-12-13T01:01:54.211Z,1014.76
2018-12-13T01:02:54.165Z,1014.71
2018-12-13T01:03:54.153Z,1014.73
2018-12-13T01:04:54.144Z,1014.75
2018-12-13T01:05:54.129Z,1014.75
2018-12-13T01:06:54.120Z,1014.77
2018-12-13T01:07:54.155Z,1014.75
2018-12-13T01:08:54.099Z,1014.77
2018-12-13T01:09:54.088Z,1014.75
2018-12-13T01:10:54.074Z,1014.73
2018-12-13T01:11:54.085Z,1014.74
2018-12-13T01:12:54.056Z,1014.72
2018-12-13T01:13:54.085Z,1014.73
2018-12-13T01:14:54.034Z,1014.76
2018-12-13T01:15:54.022Z,1014.70
2018-12-13T01:16:54.019Z,1014.73
2018-12-13T01:17:54.000Z,1014.71
2018-12-13T01:18:53.991Z,1014.72
2018-12-13T01:19:54.020Z,1014.71
2018-12-13T01:20:53.971Z,1014.70
2018-12-13T01:21:53.964Z,1014.70
2018-12-13T01:22:53.951Z,1014.68
2018-12-13T01:23:53.936Z,1014.71
2018-12-13T01:24:53.924Z,1014.70
2018-12-13T01:25:53.954Z,1014.71
2018-12-13T01:26:53.905Z,1014.72
2018-12-13T01:27:53.893Z,1014.72
2018-12-13T01:28:53.883Z,1014.72
2018-12-13T01:29:53.871Z,1014.74
2018-12-13T01:30:53.859Z,1014.70
2018-12-13T01:31:53.902Z,1014.68
2018-12-13T01:32:53.843Z,1014.65
2018-12-13T01:33:53.829Z,1014.65
2018-12-13T01:34:53.818Z,1014.69
2018-12-13T01:35:53.810Z,1014.67
2018-12-13T01:36:53.803Z,1014.69
2018-12-13T01:37:53.827Z,1014.68
2018-12-13T01:38:53.784Z,1014.69
2018-12-13T01:39:53.765Z,1014.68
2018-12-13T01:40:53.755Z,1014.68
2018-12-13T01:41:53.791Z,1014.67
2018-12-13T01:42:53.734Z,1014.63
2018-12-13T01:43:53.721Z,1014.64
2018-12-13T01:44:53.713Z,1014.67
2018-12-13T01:45:53.707Z,1014.71
2018-12-13T01:46:53.700Z,1014.70
2018-12-13T01:47:53.720Z,1014.67
2018-12-13T01:48:53.671Z,1014.67
2018-12-13T01:49:53.676Z,1014.66
2018-12-13T01:50:53.687Z,1014.66
2018-12-13T01:51:53.640Z,1014.68
2018-12-13T01:52:53.663Z,1014.70
2018-12-13T01:53:53.614Z,1014.67
2018-12-13T01:54:53.880Z,1014.65
2018-12-13T01:55:53.593Z,1014.66
2018-12-13T01:56:53.583Z,1014.62
2018-12-13T01:57:53.571Z,1014.63
2018-12-13T01:58:53.561Z,1014.62
2018-12-13T01:59:53.548Z,1014.63
2018-12-13T02:00:53.606Z,1014.57
2018-12-13T02:01:53.529Z,1014.63
2018-12-13T02:02:53.519Z,1014.57
2018-12-13T02:03:53.511Z,1014.60
2018-12-13T02:04:53.507Z,1014.61
2018-12-13T02:05:53.486Z,1014.58
2018-12-13T02:06:58.672Z,1014.62
2018-12-13T02:07:54.464Z,1014.56
2018-12-13T02:08:53.454Z,1014.56
2018-12-13T02:09:53.465Z,1014.59
2018-12-13T02:10:53.429Z,1014.58
2018-12-13T02:11:53.418Z,1014.55
2018-12-13T02:12:53.457Z,1014.56
2018-12-13T02:13:53.410Z,1014.55
2018-12-13T02:14:53.386Z,1014.54
2018-12-13T02:15:53.374Z,1014.50
2018-12-13T02:16:53.364Z,1014.50
2018-12-13T02:17:53.396Z,1014.51
2018-12-13T02:18:53.345Z,1014.52
2018-12-13T02:19:53.331Z,1014.51
2018-12-13T02:20:53.321Z,1014.53
2018-12-13T02:21:53.312Z,1014.55
2018-12-13T02:22:53.303Z,1014.52
2018-12-13T02:23:53.324Z,1014.52
2018-12-13T02:24:53.282Z,1014.49
2018-12-13T02:25:53.267Z,1014.45
2018-12-13T02:26:53.257Z,1014.50
2018-12-13T02:27:53.245Z,1014.52
2018-12-13T02:28:53.286Z,1014.52
2018-12-13T02:29:53.263Z,1014.45
2018-12-13T02:30:53.214Z,1014.47
2018-12-13T02:31:53.204Z,1014.45
2018-12-13T02:32:53.193Z,1014.44
2018-12-13T02:33:53.182Z,1014.45
2018-12-13T02:34:53.209Z,1014.44
2018-12-13T02:35:53.159Z,1014.39
2018-12-13T02:36:53.149Z,1014.46
2018-12-13T02:37:53.183Z,1014.47
2018-12-13T02:38:53.143Z,1014.47
2018-12-13T02:39:53.397Z,1014.45
2018-12-13T02:40:53.103Z,1014.46
2018-12-13T02:41:53.098Z,1014.44
2018-12-13T02:42:53.080Z,1014.42
2018-12-13T02:43:53.071Z,1014.40
2018-12-13T02:44:53.060Z,1014.38
2018-12-13T02:45:53.093Z,1014.31
2018-12-13T02:46:53.038Z,1014.33
2018-12-13T02:47:53.028Z,1014.30
2018-12-13T02:48:53.016Z,1014.31
2018-12-13T02:49:53.043Z,1014.31
2018-12-13T02:50:52.995Z,1014.25
2018-12-13T02:51:52.983Z,1014.26
2018-12-13T02:52:52.974Z,1014.24
2018-12-13T02:53:52.960Z,1014.26
2018-12-13T02:54:52.990Z,1014.24
2018-12-13T02:55:52.940Z,1014.18
2018-12-13T02:56:52.927Z,1014.20
2018-12-13T02:57:52.966Z,1014.20
2018-12-13T02:58:52.906Z,1014.13
2018-12-13T02:59:52.931Z,1014.23
2018-12-13T03:00:52.886Z,1014.20
2018-12-13T03:01:52.893Z,1014.20
2018-12-13T03:02:52.865Z,1014.15
2018-12-13T03:03:52.894Z,1014.14
2018-12-13T03:04:52.842Z,1014.15
2018-12-13T03:05:52.833Z,1014.12
2018-12-13T03:06:52.825Z,1014.10
2018-12-13T03:07:52.809Z,1014.06
2018-12-13T03:08:52.797Z,1014.07
2018-12-13T03:09:52.854Z,1014.06
2018-12-13T03:10:52.776Z,1014.11
2018-12-13T03:11:52.768Z,1014.11
2018-12-13T03:12:52.759Z,1014.03
2018-12-13T03:13:52.749Z,1014.04
2018-12-13T03:14:52.744Z,1014.06
2018-12-13T03:15:52.792Z,1014.05
2018-12-13T03:16:52.711Z,1013.97
2018-12-13T03:17:52.700Z,1013.95
2018-12-13T03:18:52.693Z,1013.95
2018-12-13T03:19:52.684Z,1013.93
2018-12-13T03:20:52.670Z,1013.92
2018-12-13T03:21:52.698Z,1013.91
2018-12-13T03:22:52.694Z,1013.94
2018-12-13T03:23:52.637Z,1013.91
2018-12-13T03:24:52.631Z,1013.91
2018-12-13T03:25:52.618Z,1013.90
2018-12-13T03:26:52.603Z,1013.94
2018-12-13T03:27:52.596Z,1013.87
2018-12-13T03:28:52.627Z,1013.86
2018-12-13T03:29:52.620Z,1013.91
2018-12-13T03:30:52.561Z,1013.93
2018-12-13T03:31:52.549Z,1013.92
2018-12-13T03:32:52.563Z,1013.85
2018-12-13T03:33:52.525Z,1013.86
2018-12-13T03:34:52.515Z,1013.85
2018-12-13T03:35:52.636Z,1013.87
2018-12-13T03:36:52.535Z,1013.85
2018-12-13T03:37:52.484Z,1013.89
2018-12-13T03:38:52.473Z,1013.85
2018-12-13T03:39:52.506Z,1013.84
2018-12-13T03:40:52.451Z,1013.83
2018-12-13T03:41:52.442Z,1013.82
2018-12-13T03:42:52.443Z,1013.74
2018-12-13T03:43:52.425Z,1013.72
2018-12-13T03:44:52.410Z,1013.77
2018-12-13T03:45:52.446Z,1013.78
2018-12-13T03:46:52.396Z,1013.74
2018-12-13T03:47:52.375Z,1013.72
2018-12-13T03:48:52.368Z,1013.73
2018-12-13T03:49:52.357Z,1013.63
2018-12-13T03:50:52.342Z,1013.70
2018-12-13T03:51:52.375Z,1013.68
2018-12-13T03:52:52.323Z,1013.68
2018-12-13T03:53:52.310Z,1013.65
2018-12-13T03:54:52.299Z,1013.60
2018-12-13T03:55:52.344Z,1013.58
2018-12-13T03:56:52.277Z,1013.55
2018-12-13T03:57:52.268Z,1013.55
2018-12-13T03:58:52.256Z,1013.55
2018-12-13T03:59:52.244Z,1013.50
2018-12-13T04:00:52.237Z,1013.49
2018-12-13T04:01:52.270Z,1013.43
2018-12-13T04:02:52.233Z,1013.47
2018-12-13T04:03:52.202Z,1013.44
2018-12-13T04:04:52.205Z,1013.48
2018-12-13T04:05:52.453Z,1013.49
2018-12-13T04:06:52.168Z,1013.44
2018-12-13T04:07:52.203Z,1013.51
2018-12-13T04:08:52.150Z,1013.48
2018-12-13T04:09:52.145Z,1013.57
2018-12-13T04:10:52.125Z,1013.47
2018-12-13T04:11:52.117Z,1013.54
2018-12-13T04:12:52.107Z,1013.50
2018-12-13T04:13:52.132Z,1013.44
2018-12-13T04:14:52.089Z,1013.47
2018-12-13T04:15:52.071Z,1013.45
2018-12-13T04:16:52.059Z,1013.50
2018-12-13T04:17:52.099Z,1013.51
2018-12-13T04:18:52.040Z,1013.50
2018-12-13T04:19:52.030Z,1013.50
2018-12-13T04:20:52.017Z,1013.45
2018-12-13T04:21:52.012Z,1013.46
2018-12-13T04:22:51.997Z,1013.51
2018-12-13T04:23:52.039Z,1013.48
2018-12-13T04:24:51.992Z,1013.47
2018-12-13T04:25:51.967Z,1013.45
2018-12-13T04:26:51.950Z,1013.43
2018-12-13T04:27:51.995Z,1013.41
2018-12-13T04:28:51.930Z,1013.45
2018-12-13T04:29:51.965Z,1013.43
2018-12-13T04:30:51.913Z,1013.40
2018-12-13T04:31:51.905Z,1013.42
2018-12-13T04:32:51.890Z,1013.40
2018-12-13T04:33:51.925Z,1013.39
2018-12-13T04:34:51.871Z,1013.42
2018-12-13T04:35:51.856Z,1013.37
2018-12-13T04:36:51.845Z,1013.36
2018-12-13T04:37:51.832Z,1013.33
2018-12-13T04:38:51.822Z,1013.30
2018-12-13T04:39:51.864Z,1013.31
2018-12-13T04:40:51.803Z,1013.32
2018-12-13T04:41:51.803Z,1013.30
2018-12-13T04:42:51.779Z,1013.25
2018-12-13T04:43:51.777Z,1013.27
2018-12-13T04:44:51.759Z,1013.24
2018-12-13T04:45:51.792Z,1013.29
2018-12-13T04:46:51.743Z,1013.25
2018-12-13T04:47:51.724Z,1013.24
2018-12-13T04:48:51.721Z,1013.22
2018-12-13T04:49:51.705Z,1013.21
2018-12-13T04:50:51.693Z,1013.19
2018-12-13T04:51:51.733Z,1013.23
2018-12-13T04:52:51.670Z,1013.22
2018-12-13T04:53:51.670Z,1013.24
2018-12-13T04:54:51.647Z,1013.22
2018-12-13T04:55:51.635Z,1013.15
2018-12-13T04:56:51.625Z,1013.17
2018-12-13T04:57:51.664Z,1013.18
2018-12-13T04:58:51.613Z,1013.25
2018-12-13T04:59:51.596Z,1013.19
2018-12-13T05:00:51.584Z,1013.17
2018-12-13T05:01:51.581Z,1013.15
2018-12-13T05:02:51.566Z,1013.18
2018-12-13T05:03:51.592Z,1013.18
2018-12-13T05:04:51.539Z,1013.21
2018-12-13T05:05:51.529Z,1013.21
2018-12-13T05:06:51.527Z,1013.17
2018-12-13T05:07:51.547Z,1013.21
2018-12-13T05:08:51.496Z,1013.21
2018-12-13T05:09:51.490Z,1013.21
2018-12-13T05:10:51.519Z,1013.20
2018-12-13T05:11:51.471Z,1013.22
2018-12-13T05:12:51.457Z,1013.18
2018-12-13T05:13:51.440Z,1013.24
2018-12-13T05:14:51.713Z,1013.21
2018-12-13T05:15:51.430Z,1013.20
2018-12-13T05:16:51.418Z,1013.22
2018-12-13T05:17:51.401Z,1013.21
2018-12-13T05:18:51.392Z,1013.22
2018-12-13T05:19:51.386Z,1013.20
2018-12-13T05:20:51.404Z,1013.21
2018-12-13T05:21:51.360Z,1013.24
2018-12-13T05:22:51.390Z,1013.21
2018-12-13T05:23:51.333Z,1013.20
2018-12-13T05:24:51.330Z,1013.20
2018-12-13T05:25:51.312Z,1013.19
2018-12-13T05:26:51.309Z,1013.17
2018-12-13T05:27:51.336Z,1013.20
2018-12-13T05:28:51.294Z,1013.16
2018-12-13T05:29:51.268Z,1013.15
2018-12-13T05:30:51.267Z,1013.13
2018-12-13T05:31:51.248Z,1013.16
2018-12-13T05:32:51.235Z,1013.09
2018-12-13T05:33:51.278Z,1013.12
2018-12-13T05:34:51.213Z,1013.08
2018-12-13T05:35:51.208Z,1013.14
2018-12-13T05:36:51.208Z,1013.10
2018-12-13T05:37:51.203Z,1013.06
2018-12-13T05:38:51.175Z,1013.05
2018-12-13T05:39:51.210Z,1013.08
2018-12-13T05:40:51.148Z,1013.07
2018-12-13T05:41:51.138Z,1013.05
2018-12-13T05:42:51.131Z,1013.05
2018-12-13T05:43:51.172Z,1013.03
2018-12-13T05:44:51.110Z,1013.04
2018-12-13T05:45:51.094Z,1013.05
2018-12-13T05:46:51.086Z,1013.07
2018-12-13T05:47:51.076Z,1013.06
2018-12-13T05:48:51.110Z,1013.08
2018-12-13T05:49:51.054Z,1013.07
2018-12-13T05:50:51.045Z,1013.09
2018-12-13T05:51:51.030Z,1013.08
2018-12-13T05:52:51.020Z,1013.10
2018-12-13T05:53:51.009Z,1013.08
2018-12-13T05:54:51.043Z,1013.04
2018-12-13T05:55:50.986Z,1013.05
2018-12-13T05:56:51.249Z,1013.03
2018-12-13T05:57:50.970Z,1012.95
2018-12-13T05:58:50.955Z,1013.00
2018-12-13T05:59:50.945Z,1013.02
2018-12-13T06:00:50.933Z,1012.99
2018-12-13T06:01:50.924Z,1013.00
2018-12-13T06:02:50.963Z,1012.98
2018-12-13T06:03:50.903Z,1012.93
2018-12-13T06:04:50.903Z,1013.04
2018-12-13T06:05:50.887Z,1013.02
2018-12-13T06:06:50.913Z,1013.06
2018-12-13T06:07:54.871Z,1013.08
2018-12-13T06:08:50.862Z,1013.08
2018-12-13T06:09:50.840Z,1013.11
2018-12-13T06:10:50.835Z,1013.05
2018-12-13T06:11:50.861Z,1013.09
2018-12-13T06:12:50.813Z,1013.04
2018-12-13T06:13:50.812Z,1013.10
2018-12-13T06:14:50.781Z,1013.09
2018-12-13T06:15:50.771Z,1013.07
2018-12-13T06:16:50.809Z,1013.09
2018-12-13T06:17:50.757Z,1013.09
2018-12-13T06:18:50.744Z,1013.07
2018-12-13T06:19:50.736Z,1013.10
2018-12-13T06:20:50.765Z,1013.09
2018-12-13T06:21:50.705Z,1013.08
2018-12-13T06:22:50.762Z,1013.05
2018-12-13T06:23:50.686Z,1013.03
2018-12-13T06:24:51.032Z,1013.12
2018-12-13T06:25:50.669Z,1013.03
2018-12-13T06:26:50.681Z,1013.07
2018-12-13T06:27:50.649Z,1013.11
2018-12-13T06:28:50.656Z,1013.05
2018-12-13T06:29:50.660Z,1013.07
2018-12-13T06:30:50.665Z,1013.06
2018-12-13T06:31:50.606Z,1013.09
2018-12-13T06:32:50.589Z,1013.12
2018-12-13T06:33:50.584Z,1013.14
2018-12-13T06:34:50.569Z,1013.17
2018-12-13T06:35:50.581Z,1013.13
2018-12-13T06:36:50.592Z,1013.15
2018-12-13T06:37:50.537Z,1013.16
2018-12-13T06:38:50.542Z,1013.19
2018-12-13T06:39:50.541Z,1013.22
2018-12-13T06:40:50.600Z,1013.22
2018-12-13T06:41:50.493Z,1013.21
2018-12-13T06:42:50.528Z,1013.20
2018-12-13T06:43:50.506Z,1013.19
2018-12-13T06:44:50.506Z,1013.22
2018-12-13T06:45:50.543Z,1013.18
2018-12-13T06:46:50.460Z,1013.18
2018-12-13T06:47:50.431Z,1013.20
2018-12-13T06:48:50.417Z,1013.21
2018-12-13T06:49:50.402Z,1013.26
2018-12-13T06:50:50.394Z,1013.22
2018-12-13T06:51:50.425Z,1013.16
2018-12-13T06:52:50.369Z,1013.15
2018-12-13T06:53:50.371Z,1013.11
2018-12-13T06:54:50.371Z,1013.16
2018-12-13T06:55:50.369Z,1013.16
2018-12-13T06:56:50.325Z,1013.16
2018-12-13T06:57:50.373Z,1013.16
2018-12-13T06:58:50.338Z,1013.18
2018-12-13T06:59:50.315Z,1013.17
2018-12-13T07:00:50.308Z,1013.15
2018-12-13T07:01:50.275Z,1013.20
2018-12-13T07:02:50.339Z,1013.21
2018-12-13T07:03:50.352Z,1013.16
2018-12-13T07:04:50.251Z,1013.21
2018-12-13T07:05:50.242Z,1013.25
2018-12-13T07:06:50.221Z,1013.26
2018-12-13T07:07:50.266Z,1013.17
2018-12-13T07:08:50.238Z,1013.27
2018-12-13T07:09:50.194Z,1013.24
2018-12-13T07:10:50.177Z,1013.25
2018-12-13T07:11:50.169Z,1013.24
2018-12-13T07:12:50.197Z,1013.27
2018-12-13T07:13:50.284Z,1013.23
2018-12-13T07:14:50.157Z,1013.27
2018-12-13T07:15:50.181Z,1013.25
2018-12-13T07:16:50.119Z,1013.22
2018-12-13T07:17:50.106Z,1013.24
2018-12-13T07:18:50.093Z,1013.26
2018-12-13T07:19:50.129Z,1013.25
2018-12-13T07:20:50.079Z,1013.20
2018-12-13T07:21:50.088Z,1013.22
2018-12-13T07:22:50.053Z,1013.27
2018-12-13T07:23:50.093Z,1013.23
2018-12-13T07:24:50.025Z,1013.25
2018-12-13T07:25:50.077Z,1013.25
2018-12-13T07:26:50.076Z,1013.28
2018-12-13T07:27:50.020Z,1013.32
2018-12-13T07:28:49.983Z,1013.31
2018-12-13T07:29:49.978Z,1013.32
2018-12-13T07:30:49.965Z,1013.31
2018-12-13T07:31:50.044Z,1013.32
2018-12-13T07:32:49.950Z,1013.34
2018-12-13T07:33:49.930Z,1013.32
2018-12-13T07:34:49.985Z,1013.32
2018-12-13T07:35:50.060Z,1013.40
2018-12-13T07:36:49.895Z,1013.40
2018-12-13T07:37:49.953Z,1013.41
2018-12-13T07:38:49.871Z,1013.43
2018-12-13T07:39:49.986Z,1013.39
2018-12-13T07:40:49.855Z,1013.44
2018-12-13T07:41:49.910Z,1013.45
2018-12-13T07:42:49.864Z,1013.48
2018-12-13T07:43:49.979Z,1013.45
2018-12-13T07:44:49.810Z,1013.49
2018-12-13T07:45:49.863Z,1013.43
2018-12-13T07:46:49.850Z,1013.48
2018-12-13T07:47:49.824Z,1013.45
2018-12-13T07:48:56.244Z,1013.47
2018-12-13T07:49:50.768Z,1013.45
2018-12-13T07:50:49.758Z,1013.49
2018-12-13T07:51:49.736Z,1013.53
2018-12-13T07:52:49.796Z,1013.48
2018-12-13T07:53:49.760Z,1013.53
2018-12-13T07:54:49.937Z,1013.53
2018-12-13T07:55:49.736Z,1013.51
2018-12-13T07:56:49.721Z,1013.51
2018-12-13T07:57:49.668Z,1013.54
2018-12-13T07:58:49.702Z,1013.56
2018-12-13T07:59:49.748Z,1013.57
2018-12-13T08:00:49.632Z,1013.57
2018-12-13T08:01:49.773Z,1013.55
2018-12-13T08:02:49.642Z,1013.59
2018-12-13T08:03:49.615Z,1013.59
2018-12-13T08:04:49.679Z,1013.59
2018-12-13T08:05:49.879Z,1013.57
2018-12-13T08:06:49.569Z,1013.60
2018-12-13T08:07:49.665Z,1013.62
2018-12-13T08:08:49.632Z,1013.63
2018-12-13T08:09:49.550Z,1013.62
2018-12-13T08:10:49.874Z,1013.61
2018-12-13T08:11:49.554Z,1013.62
2018-12-13T08:12:49.506Z,1013.59
2018-12-13T08:13:49.550Z,1013.62
2018-12-13T08:14:49.529Z,1013.47
2018-12-13T08:15:49.488Z,1013.56
2018-12-13T08:16:49.539Z,1013.56
2018-12-13T08:17:49.479Z,1013.55
2018-12-13T08:18:49.441Z,1013.50
2018-12-13T08:19:49.430Z,1013.55
2018-12-13T08:20:49.432Z,1013.57
2018-12-13T08:21:49.461Z,1013.55
2018-12-13T08:22:49.940Z,1013.54
2018-12-13T08:23:49.447Z,1013.52
2018-12-13T08:24:49.425Z,1013.54
2018-12-13T08:25:49.508Z,1013.51
2018-12-13T08:26:49.407Z,1013.48
2018-12-13T08:27:49.389Z,1013.46
2018-12-13T08:28:49.408Z,1013.50
2018-12-13T08:29:49.561Z,1013.50
2018-12-13T08:30:49.306Z,1013.55
2018-12-13T08:31:49.334Z,1013.45
2018-12-13T08:32:49.353Z,1013.52
2018-12-13T08:33:49.310Z,1013.50
2018-12-13T08:34:49.365Z,1013.53
2018-12-13T08:35:49.273Z,1013.47
2018-12-13T08:36:49.276Z,1013.48
2018-12-13T08:37:49.405Z,1013.47
2018-12-13T08:38:49.236Z,1013.43
2018-12-13T08:39:49.310Z,1013.48
2018-12-13T08:40:49.202Z,1013.43
2018-12-13T08:41:49.292Z,1013.42
2018-12-13T08:42:49.887Z,1013.41
2018-12-13T08:43:49.262Z,1013.46
2018-12-13T08:44:49.316Z,1013.47
2018-12-13T08:45:49.179Z,1013.43
2018-12-13T08:46:49.145Z,1013.43
2018-12-13T08:47:49.143Z,1013.45
2018-12-13T08:48:49.227Z,1013.43
2018-12-13T08:49:49.130Z,1013.43
2018-12-13T08:50:49.357Z,1013.41
2018-12-13T08:51:49.213Z,1013.44
2018-12-13T08:52:49.398Z,1013.42
2018-12-13T08:53:49.936Z,1013.44
2018-12-13T08:54:49.055Z,1013.44
2018-12-13T08:55:49.101Z,1013.41
2018-12-13T08:56:49.164Z,1013.45
2018-12-13T08:57:49.591Z,1013.46
2018-12-13T08:58:49.231Z,1013.40
2018-12-13T08:59:49.099Z,1013.39
2018-12-13T09:00:49.168Z,1013.43
2018-12-13T09:01:49.124Z,1013.43
2018-12-13T09:02:49.000Z,1013.33
2018-12-13T09:03:49.153Z,1013.39
2018-12-13T09:04:48.985Z,1013.34
2018-12-13T09:05:48.938Z,1013.31
2018-12-13T09:06:49.000Z,1013.28
2018-12-13T09:07:48.922Z,1013.32
2018-12-13T09:08:48.978Z,1013.34
2018-12-13T09:09:49.031Z,1013.37
2018-12-13T09:10:48.902Z,1013.37
2018-12-13T09:11:49.012Z,1013.38
2018-12-13T09:12:48.878Z,1013.39
2018-12-13T09:13:48.884Z,1013.35
2018-12-13T09:14:48.912Z,1013.38
2018-12-13T09:15:48.939Z,1013.37
2018-12-13T09:16:48.837Z,1013.37
2018-12-13T09:17:48.914Z,1013.40
2018-12-13T09:18:48.868Z,1013.37
2018-12-13T09:19:48.806Z,1013.44
2018-12-13T09:20:48.836Z,1013.41
2018-12-13T09:21:48.895Z,1013.37
2018-12-13T09:22:49.087Z,1013.43
2018-12-13T09:23:48.776Z,1013.39
2018-12-13T09:24:48.741Z,1013.38
2018-12-13T09:25:48.708Z,1013.40
2018-12-13T09:26:48.701Z,1013.40
2018-12-13T09:27:48.754Z,1013.35
2018-12-13T09:28:48.782Z,1013.41
2018-12-13T09:29:48.665Z,1013.43
2018-12-13T09:30:48.658Z,1013.42
2018-12-13T09:31:48.661Z,1013.40
2018-12-13T09:32:48.692Z,1013.41
2018-12-13T09:33:48.663Z,1013.45
2018-12-13T09:34:48.616Z,1013.46
2018-12-13T09:35:48.718Z,1013.42
2018-12-13T09:36:48.612Z,1013.43
2018-12-13T09:37:48.641Z,1013.45
2018-12-13T09:38:48.767Z,1013.45
2018-12-13T09:39:48.672Z,1013.45
2018-12-13T09:40:48.551Z,1013.42
2018-12-13T09:41:48.549Z,1013.43
2018-12-13T09:42:48.543Z,1013.46
2018-12-13T09:43:48.578Z,1013.45
2018-12-13T09:44:48.511Z,1013.42
2018-12-13T09:45:48.537Z,1013.45
2018-12-13T09:46:48.561Z,1013.40
2018-12-13T09:47:48.490Z,1013.42
2018-12-13T09:48:49.433Z,1013.37
2018-12-13T09:49:48.979Z,1013.39
2018-12-13T09:50:49.048Z,1013.39
2018-12-13T09:51:48.426Z,1013.47
2018-12-13T09:52:48.460Z,1013.37
2018-12-13T09:53:48.419Z,1013.43
2018-12-13T09:54:48.431Z,1013.38
2018-12-13T09:55:48.417Z,1013.40
2018-12-13T09:56:48.463Z,1013.43
2018-12-13T09:57:48.441Z,1013.42
2018-12-13T09:58:48.458Z,1013.40
2018-12-13T09:59:48.348Z,1013.40
2018-12-13T10:00:48.372Z,1013.39
2018-12-13T10:01:48.325Z,1013.41
2018-12-13T10:02:48.369Z,1013.38
2018-12-13T10:03:48.321Z,1013.31
2018-12-13T10:04:48.294Z,1013.29
2018-12-13T10:05:48.289Z,1013.33
2018-12-13T10:06:48.362Z,1013.23
2018-12-13T10:07:48.272Z,1013.31
2018-12-13T10:08:48.279Z,1013.29
2018-12-13T10:09:48.321Z,1013.27
2018-12-13T10:10:48.230Z,1013.25
2018-12-13T10:11:48.247Z,1013.29
2018-12-13T10:12:49.271Z,1013.18
2018-12-13T10:13:48.208Z,1013.21
2018-12-13T10:14:48.190Z,1013.20
2018-12-13T10:15:48.486Z,1013.14
2018-12-13T10:16:48.842Z,1013.16
2018-12-13T10:17:48.156Z,1013.17
2018-12-13T10:18:48.138Z,1013.14
2018-12-13T10:19:48.136Z,1013.14
2018-12-13T10:20:48.183Z,1013.15
2018-12-13T10:21:48.105Z,1013.12
2018-12-13T10:22:48.157Z,1013.18
2018-12-13T10:23:48.116Z,1013.15
2018-12-13T10:24:48.110Z,1013.11
2018-12-13T10:25:48.070Z,1013.11
2018-12-13T10:26:48.425Z,1013.11
2018-12-13T10:27:48.058Z,1013.10
2018-12-13T10:28:48.030Z,1013.12
2018-12-13T10:29:48.043Z,1013.07
2018-12-13T10:30:48.007Z,1013.08
2018-12-13T10:31:48.160Z,1013.07
2018-12-13T10:32:48.095Z,1013.03
2018-12-13T10:33:48.069Z,1013.06
2018-12-13T10:34:48.009Z,1013.05
2018-12-13T10:35:48.248Z,1013.07
2018-12-13T10:36:47.937Z,1012.98
2018-12-13T10:37:48.209Z,1012.98
2018-12-13T10:38:52.971Z,1012.98
2018-12-13T10:39:48.908Z,1012.95
2018-12-13T10:40:49.032Z,1012.95
2018-12-13T10:41:47.947Z,1012.95
2018-12-13T10:42:47.902Z,1012.93
2018-12-13T10:43:48.329Z,1012.91
2018-12-13T10:44:47.900Z,1012.90
2018-12-13T10:45:47.868Z,1012.90
2018-12-13T10:46:47.838Z,1012.89
2018-12-13T10:47:47.978Z,1012.88
2018-12-13T10:48:48.081Z,1012.84
2018-12-13T10:49:47.798Z,1012.84
2018-12-13T10:50:47.796Z,1012.85
2018-12-13T10:51:47.896Z,1012.80
2018-12-13T10:52:47.773Z,1012.83
2018-12-13T10:53:47.790Z,1012.85
2018-12-13T10:54:47.826Z,1012.84
2018-12-13T10:55:47.779Z,1012.78
2018-12-13T10:56:47.723Z,1012.76
2018-12-13T10:57:47.864Z,1012.78
2018-12-13T10:58:47.706Z,1012.77
2018-12-13T10:59:48.318Z,1012.69
2018-12-13T11:00:47.720Z,1012.74
2018-12-13T11:01:47.710Z,1012.65
2018-12-13T11:02:47.811Z,1012.72
2018-12-13T11:03:47.649Z,1012.71
2018-12-13T11:04:47.737Z,1012.70
2018-12-13T11:05:47.682Z,1012.76
2018-12-13T11:06:47.615Z,1012.78
2018-12-13T11:07:47.626Z,1012.68
2018-12-13T11:08:47.661Z,1012.74
2018-12-13T11:09:47.596Z,1012.72
2018-12-13T11:10:47.588Z,1012.69
2018-12-13T11:11:47.562Z,1012.72
2018-12-13T11:12:47.607Z,1012.67
2018-12-13T11:13:47.643Z,1012.64
2018-12-13T11:14:47.543Z,1012.66
2018-12-13T11:15:47.585Z,1012.64
2018-12-13T11:16:47.615Z,1012.64
2018-12-13T11:17:47.575Z,1012.65
2018-12-13T11:18:47.562Z,1012.65
2018-12-13T11:19:47.951Z,1012.62
2018-12-13T11:20:47.545Z,1012.63
2018-12-13T11:21:47.510Z,1012.64
2018-12-13T11:22:47.588Z,1012.58
2018-12-13T11:23:47.665Z,1012.60
2018-12-13T11:24:47.481Z,1012.62
2018-12-13T11:25:47.410Z,1012.57
2018-12-13T11:26:47.409Z,1012.61
2018-12-13T11:27:47.437Z,1012.63
2018-12-13T11:28:47.413Z,1012.58
2018-12-13T11:29:47.928Z,1012.53
2018-12-13T11:30:47.353Z,1012.47
2018-12-13T11:31:47.351Z,1012.49
2018-12-13T11:32:47.442Z,1012.52
2018-12-13T11:33:47.348Z,1012.52
2018-12-13T11:34:47.373Z,1012.53
2018-12-13T11:35:48.367Z,1012.48
2018-12-13T11:36:47.295Z,1012.47
2018-12-13T11:37:47.357Z,1012.40
2018-12-13T11:38:47.276Z,1012.38
2018-12-13T11:39:47.285Z,1012.44
2018-12-13T11:40:47.278Z,1012.47
2018-12-13T11:41:47.277Z,1012.51
2018-12-13T11:42:47.268Z,1012.44
2018-12-13T11:43:47.257Z,1012.47
2018-12-13T11:44:47.287Z,1012.46
2018-12-13T11:45:47.234Z,1012.42
2018-12-13T11:46:47.204Z,1012.44
2018-12-13T11:47:47.224Z,1012.33
2018-12-13T11:48:47.205Z,1012.32
2018-12-13T11:49:47.333Z,1012.34
2018-12-13T11:50:47.142Z,1012.27
2018-12-13T11:51:47.153Z,1012.23
2018-12-13T11:52:47.271Z,1012.27
2018-12-13T11:53:47.144Z,1012.23
2018-12-13T11:54:47.144Z,1012.22
2018-12-13T11:55:47.088Z,1012.20
2018-12-13T11:56:47.273Z,1012.28
2018-12-13T11:57:47.073Z,1012.20
2018-12-13T11:58:47.075Z,1012.20
2018-12-13T11:59:47.172Z,1012.15
2018-12-13T12:00:47.087Z,1012.17
2018-12-13T12:01:47.051Z,1012.21
2018-12-13T12:02:47.014Z,1012.16
2018-12-13T12:03:47.005Z,1012.14
2018-12-13T12:04:47.177Z,1012.06
2018-12-13T12:05:47.072Z,1012.06